Time;durP1;ratioP1;P1;durP2;ratioP2;P2;SDS_P1;SDS_P2;PMS_P1;PMS_P2;Temp;Humidity;BMP_temperature;BMP_pressure;BME280_temperature;BME280_humidity;BME280_pressure;Samples;Min_cycle;Max_cycle;Signal;HPM_P1;HPM_P2
2023/02/01 00:01:06;;;;;;;34.38;16.20;;;5.50;99.90;;;;;;5078484;28;20465;-58
2023/02/01 00:03:33;;;;;;;31.00;13.95;;;5.50;99.90;;;;;;5087018;28;20441;-58
2023/02/01 00:06:00;;;;;;;26.58;14.48;;;5.50;99.90;;;;;;5073329;28;20414;-59
2023/02/01 00:08:27;;;;;;;25.00;13.32;;;5.50;99.90;;;;;;5077716;28;20422;-60
2023/02/01 00:11:01;;;;;;;25.40;12.82;;;5.50;99.90;;;;;;5066854;28;20433;-60
2023/02/01 00:13:32;;;;;;;26.30;11.65;;;5.50;99.90;;;;;;5079276;28;20409;-60
2023/02/01 00:16:08;;;;;;;24.67;10.20;;;5.60;99.90;;;;;;5078258;28;20842;-59
2023/02/01 00:18:35;;;;;;;24.13;9.43;;;5.50;99.90;;;;;;5078731;28;20416;-59
2023/02/01 00:21:02;;;;;;;21.13;8.77;;;5.60;99.90;;;;;;5073597;28;20459;-60
2023/02/01 00:23:29;;;;;;;21.90;8.83;;;5.50;99.90;;;;;;5080674;28;20515;-60
2023/02/01 00:25:55;;;;;;;21.25;8.43;;;5.50;99.90;;;;;;5073149;28;20426;-59
2023/02/01 00:28:22;;;;;;;20.55;7.88;;;5.60;99.90;;;;;;5072843;28;20894;-59
2023/02/01 00:30:57;;;;;;;19.48;6.55;;;5.50;99.90;;;;;;5073592;28;20791;-57
2023/02/01 00:33:25;;;;;;;19.25;6.90;;;5.60;99.90;;;;;;5082951;28;20410;-57
2023/02/01 00:35:51;;;;;;;20.85;6.65;;;5.50;99.90;;;;;;5077868;28;20423;-60
2023/02/01 00:38:18;;;;;;;22.48;7.20;;;5.50;99.90;;;;;;5089109;28;20414;-60
2023/02/01 00:40:45;;;;;;;18.88;6.00;;;5.60;99.90;;;;;;5078876;28;20416;-61
2023/02/01 00:43:12;;;;;;;19.95;6.38;;;5.60;99.90;;;;;;5085459;28;20415;-60
2023/02/01 00:45:38;;;;;;;16.57;5.47;;;5.50;99.90;;;;;;5080511;28;20413;-59
2023/02/01 00:48:06;;;;;;;17.42;6.10;;;5.50;99.90;;;;;;5089787;28;20467;-61
2023/02/01 00:50:34;;;;;;;18.65;5.97;;;5.60;99.90;;;;;;5072459;28;20427;-60
2023/02/01 00:53:00;;;;;;;21.50;6.13;;;5.60;99.90;;;;;;5080591;28;20435;-61
2023/02/01 00:55:27;;;;;;;22.17;6.22;;;5.60;99.90;;;;;;5076340;28;20418;-62
2023/02/01 00:57:54;;;;;;;17.90;5.47;;;5.50;99.90;;;;;;5083786;28;20419;-60
2023/02/01 01:00:20;;;;;;;18.30;5.72;;;5.50;99.90;;;;;;5071854;28;20465;-61
2023/02/01 01:02:47;;;;;;;18.20;4.68;;;5.50;99.90;;;;;;5059653;28;20471;-59
2023/02/01 01:05:16;;;;;;;17.88;5.10;;;5.50;99.90;;;;;;5070136;28;22413;-59
2023/02/01 01:07:44;;;;;;;16.05;5.57;;;5.60;99.90;;;;;;5077780;28;20805;-60
2023/02/01 01:10:11;;;;;;;16.70;5.43;;;5.60;99.90;;;;;;5080407;28;20422;-61
2023/02/01 01:12:38;;;;;;;21.38;5.57;;;5.60;99.90;;;;;;5076630;28;20482;-60
2023/02/01 01:15:06;;;;;;;18.25;5.70;;;5.60;99.90;;;;;;5072481;28;20469;-61
2023/02/01 01:17:32;;;;;;;14.80;5.90;;;5.60;99.90;;;;;;5077960;28;20496;-60
2023/02/01 01:19:59;;;;;;;16.73;5.78;;;5.60;99.90;;;;;;5079896;28;20407;-60
2023/02/01 01:22:26;;;;;;;20.75;6.00;;;5.60;99.90;;;;;;5074957;28;20758;-60
2023/02/01 01:24:54;;;;;;;19.95;6.03;;;5.60;99.90;;;;;;5075707;28;20902;-60
2023/02/01 01:27:23;;;;;;;17.83;5.85;;;5.60;99.90;;;;;;5074434;28;20837;-61
2023/02/01 01:29:50;;;;;;;20.77;6.97;;;5.50;99.90;;;;;;5076650;28;20423;-60
2023/02/01 01:32:17;;;;;;;20.92;7.05;;;5.50;99.90;;;;;;5083148;28;20419;-60
2023/02/01 01:34:43;;;;;;;17.38;7.72;;;5.50;99.90;;;;;;5079279;28;20930;-61
2023/02/01 01:37:10;;;;;;;19.73;7.18;;;5.50;99.90;;;;;;5072014;28;20407;-60
2023/02/01 01:39:37;;;;;;;21.98;7.60;;;5.40;99.90;;;;;;5074893;28;20456;-60
2023/02/01 01:42:05;;;;;;;21.15;7.15;;;5.50;99.90;;;;;;5085818;28;20475;-61
2023/02/01 01:44:57;;;;;;;19.92;7.93;;;5.60;99.90;;;;;;5078282;28;20424;-60
2023/02/01 01:47:25;;;;;;;21.45;7.75;;;5.50;99.90;;;;;;5078739;28;20417;-60
2023/02/01 01:49:52;;;;;;;18.08;6.60;;;5.60;99.90;;;;;;5072809;28;20424;-60
2023/02/01 01:52:19;;;;;;;21.55;7.43;;;5.60;99.90;;;;;;5088190;28;20468;-57
2023/02/01 01:54:49;;;;;;;19.95;7.38;;;5.50;99.90;;;;;;5080246;28;20486;-60
2023/02/01 01:57:20;;;;;;;18.25;8.05;;;5.50;99.90;;;;;;5085465;28;20413;-59
2023/02/01 01:59:53;;;;;;;18.55;7.13;;;5.60;99.90;;;;;;5082443;28;20500;-60
2023/02/01 02:02:20;;;;;;;16.58;7.30;;;5.50;99.90;;;;;;5071304;28;20438;-60
2023/02/01 02:04:47;;;;;;;19.95;7.72;;;5.50;99.90;;;;;;5062366;28;20763;-60
2023/02/01 02:07:18;;;;;;;19.65;7.57;;;5.50;99.90;;;;;;5077748;28;20419;-60
2023/02/01 02:09:45;;;;;;;20.25;7.57;;;5.50;99.90;;;;;;5074310;28;20426;-60
2023/02/01 02:12:11;;;;;;;24.63;7.53;;;5.50;99.90;;;;;;5078933;28;20471;-60
2023/02/01 02:14:40;;;;;;;21.50;7.15;;;5.60;99.90;;;;;;5075978;28;20813;-60
2023/02/01 02:17:25;;;;;;;21.13;7.10;;;5.60;99.90;;;;;;5080798;28;20425;-61
2023/02/01 02:20:46;;;;;;;20.25;7.22;;;5.50;99.90;;;;;;5053636;28;20418;-60
2023/02/01 02:23:39;;;;;;;24.30;7.35;;;5.50;99.90;;;;;;5006624;28;20412;-60
2023/02/01 02:26:39;;;;;;;19.57;6.47;;;5.40;99.90;;;;;;5054569;28;20499;-58
2023/02/01 02:29:29;;;;;;;21.13;7.05;;;5.40;99.90;;;;;;5051304;28;20422;-58
2023/02/01 02:32:23;;;;;;;17.35;6.18;;;5.40;99.90;;;;;;5059906;28;20411;-58
2023/02/01 02:34:56;;;;;;;15.85;5.68;;;5.40;99.90;;;;;;5063691;28;20444;-56
2023/02/01 02:37:35;;;;;;;17.25;5.97;;;5.40;99.90;;;;;;5085923;28;20406;-58
2023/02/01 02:40:08;;;;;;;20.70;5.47;;;5.50;99.90;;;;;;5070957;28;20890;-58
2023/02/01 02:48:21;;;;;;;18.30;5.80;;;5.50;98.00;;;;;;5071415;28;20402;-58
2023/02/01 03:04:56;;;;;;;20.58;5.72;;;5.40;81.20;;;;;;5064345;28;20402;-60
2023/02/01 03:07:54;;;;;;;16.50;5.13;;;5.40;81.90;;;;;;5083439;28;20509;-60
2023/02/01 03:10:30;;;;;;;19.23;5.05;;;5.40;80.50;;;;;;5072220;28;20809;-60
2023/02/01 03:13:02;;;;;;;14.02;4.25;;;5.50;72.70;;;;;;5081922;28;20459;-60
2023/02/01 03:15:36;;;;;;;18.10;4.72;;;5.40;62.20;;;;;;5081790;28;20425;-60
2023/02/01 03:18:08;;;;;;;19.98;4.65;;;5.30;64.50;;;;;;5079750;28;20423;-60
2023/02/01 03:20:36;;;;;;;15.27;4.38;;;5.30;63.40;;;;;;5070497;28;20503;-60
2023/02/01 03:23:06;;;;;;;18.52;4.88;;;5.20;72.90;;;;;;5074272;28;20949;-61
2023/02/01 03:25:35;;;;;;;16.55;4.60;;;5.10;74.00;;;;;;5084752;28;20493;-60
2023/02/01 03:28:04;;;;;;;16.83;4.43;;;5.10;91.40;;;;;;5070181;28;20767;-60
2023/02/01 03:30:35;;;;;;;13.00;4.13;;;5.10;85.60;;;;;;5070690;28;20816;-60
2023/02/01 03:33:11;;;;;;;17.25;4.47;;;5.10;79.40;;;;;;5070443;28;20420;-59
2023/02/01 03:35:45;;;;;;;16.63;4.45;;;5.10;76.90;;;;;;5078532;28;20449;-58
2023/02/01 03:38:20;;;;;;;13.75;4.60;;;5.20;77.50;;;;;;5071512;28;20813;-59
2023/02/01 03:40:52;;;;;;;18.40;4.30;;;5.20;73.60;;;;;;5070347;28;20411;-60
2023/02/01 03:43:22;;;;;;;19.30;5.05;;;5.20;73.60;;;;;;5068644;28;20496;-60
2023/02/01 03:45:54;;;;;;;12.93;4.50;;;5.10;72.70;;;;;;5075077;28;20893;-60
2023/02/01 03:48:23;;;;;;;18.50;5.50;;;5.10;61.90;;;;;;5085793;28;20779;-59
2023/02/01 03:50:54;;;;;;;16.40;4.32;;;5.20;69.70;;;;;;5069222;28;20432;-59
2023/02/01 03:53:24;;;;;;;17.07;4.73;;;5.20;73.80;;;;;;5061516;28;20813;-60
2023/02/01 03:55:53;;;;;;;16.23;4.53;;;5.20;77.20;;;;;;5074535;28;20427;-61
2023/02/01 03:58:21;;;;;;;17.52;4.90;;;5.20;75.80;;;;;;5074389;28;20463;-60
2023/02/01 04:00:54;;;;;;;17.98;4.72;;;5.20;80.20;;;;;;5073279;28;20909;-60
2023/02/01 04:03:21;;;;;;;16.60;5.18;;;5.20;83.30;;;;;;5084787;28;20410;-59
2023/02/01 04:05:48;;;;;;;18.70;4.47;;;5.20;75.90;;;;;;5055061;28;20492;-60
2023/02/01 04:08:15;;;;;;;16.13;4.85;;;5.20;80.80;;;;;;5080392;28;20410;-60
2023/02/01 04:10:43;;;;;;;18.63;4.20;;;5.10;85.10;;;;;;5077956;28;20916;-60
2023/02/01 04:13:10;;;;;;;19.17;4.90;;;5.20;81.10;;;;;;5079860;28;20826;-60
2023/02/01 04:15:37;;;;;;;19.90;4.87;;;5.20;79.30;;;;;;5073327;28;20512;-57
2023/02/01 04:18:04;;;;;;;15.85;4.47;;;5.20;87.90;;;;;;5076800;28;20415;-58
2023/02/01 04:20:31;;;;;;;16.98;4.85;;;5.30;88.00;;;;;;5074496;28;20415;-58
2023/02/01 04:22:58;;;;;;;17.48;4.93;;;5.20;90.90;;;;;;5074256;28;20411;-58
2023/02/01 04:25:24;;;;;;;18.92;4.95;;;5.30;86.40;;;;;;5088354;28;20946;-58
2023/02/01 04:27:52;;;;;;;18.38;4.93;;;5.30;87.00;;;;;;5085371;28;20453;-58
2023/02/01 04:30:19;;;;;;;22.42;5.60;;;5.30;90.10;;;;;;5073030;28;20484;-59
2023/02/01 04:32:46;;;;;;;22.10;4.60;;;5.30;95.20;;;;;;5085114;28;20495;-57
2023/02/01 04:35:13;;;;;;;22.23;5.47;;;5.30;99.20;;;;;;5087108;28;20420;-58
2023/02/01 04:37:40;;;;;;;22.10;5.25;;;5.30;99.30;;;;;;5071409;28;20423;-58
2023/02/01 04:40:07;;;;;;;18.45;5.38;;;5.30;97.30;;;;;;5072412;28;20416;-59
2023/02/01 04:42:34;;;;;;;22.70;5.13;;;5.40;97.60;;;;;;5084758;28;20417;-59
2023/02/01 04:45:02;;;;;;;21.33;5.38;;;5.40;92.30;;;;;;5068850;28;20423;-57
2023/02/01 04:47:29;;;;;;;20.13;5.28;;;5.40;96.80;;;;;;5084594;28;20418;-58
2023/02/01 04:49:55;;;;;;;18.42;5.68;;;5.40;95.30;;;;;;5075959;28;20480;-59
2023/02/01 04:52:22;;;;;;;19.90;4.85;;;5.40;96.70;;;;;;5077565;28;20488;-59
2023/02/01 04:54:49;;;;;;;17.38;4.95;;;5.40;96.20;;;;;;5066073;28;20425;-59
2023/02/01 04:57:15;;;;;;;17.87;5.07;;;5.40;96.10;;;;;;5067375;28;20461;-59
2023/02/01 04:59:42;;;;;;;19.58;4.35;;;5.40;99.90;;;;;;5064685;28;20423;-58
2023/02/01 05:02:10;;;;;;;21.77;5.40;;;5.40;98.80;;;;;;5078431;28;20413;-60
2023/02/01 05:04:37;;;;;;;16.30;5.03;;;5.40;99.90;;;;;;5084846;28;20428;-60
2023/02/01 05:07:03;;;;;;;19.85;5.32;;;5.40;99.90;;;;;;5081243;28;21010;-61
2023/02/01 05:09:30;;;;;;;18.98;4.93;;;5.40;99.90;;;;;;5087403;28;20475;-59
2023/02/01 05:14:41;;;;;;;22.42;4.82;;;5.40;99.90;;;;;;5088938;28;20884;-60
2023/02/01 05:17:08;;;;;;;19.80;4.85;;;5.40;99.90;;;;;;5082633;28;20809;-60
2023/02/01 05:19:36;;;;;;;17.05;3.90;;;5.40;99.90;;;;;;5081456;28;20413;-60
2023/02/01 05:22:02;;;;;;;19.00;5.00;;;5.30;99.90;;;;;;5088514;28;20884;-60
2023/02/01 05:24:29;;;;;;;19.33;4.45;;;5.40;99.90;;;;;;5075984;28;20784;-60
2023/02/01 05:26:56;;;;;;;17.33;4.47;;;5.40;99.90;;;;;;5054359;28;20413;-59
2023/02/01 05:29:22;;;;;;;15.93;4.60;;;5.30;99.90;;;;;;5081770;28;20428;-60
2023/02/01 05:31:49;;;;;;;17.25;4.40;;;5.40;99.90;;;;;;5080127;28;20500;-60
2023/02/01 05:34:17;;;;;;;18.38;4.60;;;5.40;99.90;;;;;;5070369;28;20419;-57
2023/02/01 05:36:45;;;;;;;18.75;4.63;;;5.40;99.90;;;;;;5070620;28;20469;-60
2023/02/01 05:39:12;;;;;;;35.00;4.50;;;5.40;99.90;;;;;;5085154;28;20823;-57
2023/02/01 05:41:39;;;;;;;27.70;4.40;;;5.30;99.90;;;;;;5081307;28;20862;-59
2023/02/01 05:44:07;;;;;;;20.80;4.90;;;5.30;99.90;;;;;;5079454;28;20406;-60
2023/02/01 05:46:34;;;;;;;23.23;4.75;;;5.30;99.90;;;;;;5081493;28;20421;-60
2023/02/01 05:49:00;;;;;;;19.90;4.85;;;5.30;99.90;;;;;;5087750;28;20419;-60
2023/02/01 05:51:27;;;;;;;18.37;3.90;;;5.30;99.90;;;;;;5075546;28;20878;-64
2023/02/01 05:53:55;;;;;;;17.05;4.82;;;5.30;99.90;;;;;;5067470;28;20420;-60
2023/02/01 05:56:22;;;;;;;20.08;4.68;;;5.20;99.90;;;;;;5073227;28;20418;-60
2023/02/01 05:58:48;;;;;;;22.30;4.88;;;5.20;99.90;;;;;;5065563;28;20890;-60
2023/02/01 06:01:15;;;;;;;22.07;4.70;;;5.20;99.90;;;;;;5071371;28;20885;-60
2023/02/01 06:03:42;;;;;;;16.77;4.60;;;5.10;99.90;;;;;;5061061;28;20421;-60
2023/02/01 06:06:08;;;;;;;24.52;4.88;;;5.10;99.90;;;;;;5076477;28;20411;-60
2023/02/01 06:08:35;;;;;;;17.70;4.82;;;5.10;99.90;;;;;;5073175;28;20416;-58
2023/02/01 06:11:05;;;;;;;20.77;5.28;;;5.10;99.90;;;;;;5079755;28;20481;-60
2023/02/01 06:13:33;;;;;;;21.67;4.22;;;5.10;99.90;;;;;;5079520;28;20444;-61
2023/02/01 06:15:59;;;;;;;17.35;5.15;;;5.20;99.90;;;;;;5078292;28;20465;-60
2023/02/01 06:18:26;;;;;;;22.42;5.03;;;5.20;99.90;;;;;;5080018;28;20412;-60
2023/02/01 06:20:54;;;;;;;16.85;4.72;;;5.10;99.90;;;;;;5073928;28;20413;-60
2023/02/01 06:23:23;;;;;;;19.58;4.72;;;5.20;99.90;;;;;;5074081;28;20432;-60
2023/02/01 06:25:50;;;;;;;20.75;5.22;;;5.20;99.90;;;;;;5073395;28;20577;-60
2023/02/01 06:28:19;;;;;;;19.60;5.05;;;5.20;99.90;;;;;;5076186;28;20473;-60
2023/02/01 06:30:46;;;;;;;16.93;4.90;;;5.20;99.90;;;;;;5073911;28;20410;-61
2023/02/01 06:33:14;;;;;;;14.70;4.43;;;5.20;99.90;;;;;;5073862;28;20444;-64
2023/02/01 06:35:42;;;;;;;23.20;5.45;;;5.30;99.90;;;;;;5074504;28;20846;-64
2023/02/01 06:38:09;;;;;;;21.75;5.20;;;5.30;99.90;;;;;;5077158;28;20415;-61
2023/02/01 06:40:36;;;;;;;17.00;4.50;;;5.30;99.90;;;;;;5080332;28;20504;-59
2023/02/01 06:43:02;;;;;;;23.90;5.07;;;5.30;99.90;;;;;;5077828;28;20471;-60
2023/02/01 06:45:31;;;;;;;23.30;5.53;;;5.20;99.90;;;;;;5068246;28;20419;-60
2023/02/01 06:48:00;;;;;;;25.45;4.57;;;5.20;99.90;;;;;;5073792;28;20418;-60
2023/02/01 06:50:27;;;;;;;19.37;5.03;;;5.20;99.90;;;;;;5080074;28;20498;-60
2023/02/01 06:52:53;;;;;;;23.20;5.22;;;5.20;99.90;;;;;;5078063;28;20426;-59
2023/02/01 06:55:20;;;;;;;24.58;5.35;;;5.20;99.90;;;;;;5072794;28;20435;-59
2023/02/01 06:57:47;;;;;;;21.73;5.07;;;5.20;99.90;;;;;;5079074;28;20474;-59
2023/02/01 07:00:15;;;;;;;20.93;5.40;;;5.20;99.90;;;;;;5078601;28;20898;-61
2023/02/01 07:02:43;;;;;;;22.65;5.63;;;5.30;99.90;;;;;;5082647;28;20810;-60
2023/02/01 07:05:10;;;;;;;20.13;4.85;;;5.30;99.90;;;;;;5078190;28;20421;-60
2023/02/01 07:07:37;;;;;;;19.98;4.65;;;5.30;99.90;;;;;;5081829;28;20422;-61
2023/02/01 07:10:04;;;;;;;18.42;4.45;;;5.30;99.90;;;;;;5075902;28;21128;-60
2023/02/01 07:12:31;;;;;;;18.88;4.65;;;5.30;99.90;;;;;;5077676;28;20431;-61
2023/02/01 07:14:57;;;;;;;17.67;4.80;;;5.40;99.90;;;;;;5080033;28;20412;-61
2023/02/01 07:17:24;;;;;;;17.10;4.90;;;5.40;99.90;;;;;;5081060;28;20445;-61
2023/02/01 07:19:52;;;;;;;22.83;4.28;;;5.40;99.90;;;;;;5080197;28;20767;-61
2023/02/01 07:22:19;;;;;;;18.30;4.82;;;5.40;99.90;;;;;;5080230;28;20461;-59
2023/02/01 07:24:46;;;;;;;20.90;5.10;;;5.50;99.70;;;;;;5084969;28;20420;-58
2023/02/01 07:27:13;;;;;;;17.50;4.65;;;5.50;97.90;;;;;;5082793;28;20414;-61
2023/02/01 07:29:39;;;;;;;18.63;4.45;;;5.50;99.50;;;;;;5082172;28;20801;-59
2023/02/01 07:32:06;;;;;;;21.20;5.32;;;5.50;97.20;;;;;;5083576;28;20437;-58
2023/02/01 07:34:33;;;;;;;19.13;5.03;;;5.50;99.90;;;;;;5083857;28;20417;-60
2023/02/01 07:37:02;;;;;;;21.02;5.28;;;5.50;99.90;;;;;;5082572;28;20510;-59
2023/02/01 07:39:31;;;;;;;24.48;5.43;;;5.50;99.90;;;;;;5082306;28;20419;-58
2023/02/01 07:41:58;;;;;;;24.10;4.80;;;5.60;99.90;;;;;;5079176;28;20494;-58
2023/02/01 07:44:25;;;;;;;21.00;4.82;;;5.50;99.90;;;;;;5082968;28;20412;-60
2023/02/01 07:46:51;;;;;;;17.13;5.15;;;5.60;99.00;;;;;;5084414;28;20467;-58
2023/02/01 07:49:18;;;;;;;21.83;4.85;;;5.50;99.90;;;;;;5080826;28;20405;-58
2023/02/01 07:51:45;;;;;;;13.43;4.03;;;5.60;99.90;;;;;;5084343;28;20923;-59
2023/02/01 07:54:13;;;;;;;16.42;4.80;;;5.50;99.90;;;;;;5077195;28;20918;-59
2023/02/01 07:56:39;;;;;;;16.48;5.28;;;5.50;99.90;;;;;;5083307;28;20781;-61
2023/02/01 07:59:10;;;;;;;18.33;5.18;;;5.50;99.90;;;;;;5084228;28;20402;-58
2023/02/01 08:01:37;;;;;;;16.17;5.47;;;5.60;99.90;;;;;;5083366;28;20439;-60
2023/02/01 08:04:04;;;;;;;22.70;5.70;;;5.60;99.40;;;;;;5081640;28;20411;-60
2023/02/01 08:06:34;;;;;;;20.85;5.35;;;5.70;99.00;;;;;;5083199;28;20912;-60
2023/02/01 08:09:01;;;;;;;17.83;6.03;;;5.70;98.80;;;;;;5083894;28;20413;-60
2023/02/01 08:11:30;;;;;;;22.05;5.40;;;5.80;97.20;;;;;;5081897;28;20526;-60
2023/02/01 08:13:57;;;;;;;18.40;5.70;;;5.70;99.60;;;;;;5081602;28;20415;-57
2023/02/01 08:16:24;;;;;;;19.10;5.43;;;5.70;99.40;;;;;;5081892;28;20419;-59
2023/02/01 08:18:52;;;;;;;18.47;5.60;;;5.70;99.90;;;;;;5084528;28;20424;-59
2023/02/01 08:21:21;;;;;;;15.60;4.80;;;5.70;99.90;;;;;;5084321;28;20417;-60
2023/02/01 08:23:49;;;;;;;23.30;6.20;;;5.70;99.90;;;;;;5082949;28;20415;-60
2023/02/01 08:26:17;;;;;;;22.38;6.40;;;5.70;99.90;;;;;;5080595;28;21101;-60
2023/02/01 08:28:47;;;;;;;24.05;5.88;;;5.70;99.90;;;;;;5082230;28;20415;-59
2023/02/01 08:31:16;;;;;;;20.48;5.63;;;5.70;99.90;;;;;;5081333;28;20408;-59
2023/02/01 08:33:44;;;;;;;23.40;6.10;;;5.70;99.90;;;;;;5082606;28;20414;-57
2023/02/01 08:36:12;;;;;;;22.30;5.68;;;5.70;99.90;;;;;;5082416;28;20438;-59
2023/02/01 08:38:40;;;;;;;24.17;5.82;;;5.70;99.90;;;;;;5081912;28;20418;-60
2023/02/01 08:41:08;;;;;;;25.05;5.85;;;5.80;99.90;;;;;;5081550;28;20981;-58
2023/02/01 08:43:35;;;;;;;22.83;5.63;;;5.80;99.90;;;;;;5083712;28;20907;-58
2023/02/01 08:46:03;;;;;;;18.90;5.47;;;5.80;99.90;;;;;;5082689;28;20467;-58
2023/02/01 08:48:30;;;;;;;22.27;5.47;;;5.80;99.90;;;;;;5079531;28;20419;-60
2023/02/01 08:50:57;;;;;;;22.63;5.88;;;5.90;99.90;;;;;;5077313;28;20430;-59
2023/02/01 08:53:24;;;;;;;21.05;6.00;;;5.90;99.90;;;;;;5075923;28;20433;-61
2023/02/01 08:55:51;;;;;;;22.20;5.97;;;5.90;99.90;;;;;;5083339;28;20496;-58
2023/02/01 08:58:17;;;;;;;18.80;5.20;;;5.90;99.90;;;;;;5074681;28;20431;-58
2023/02/01 09:00:45;;;;;;;22.13;6.15;;;5.90;99.90;;;;;;5080000;28;20951;-58
2023/02/01 09:03:13;;;;;;;20.35;5.70;;;5.90;99.90;;;;;;5071877;28;20410;-58
2023/02/01 09:05:39;;;;;;;20.23;5.40;;;5.90;99.90;;;;;;5083191;28;20417;-58
2023/02/01 09:08:06;;;;;;;21.67;5.95;;;5.90;98.80;;;;;;5081088;28;20415;-59
2023/02/01 09:10:34;;;;;;;18.63;5.28;;;5.90;96.10;;;;;;5080216;28;20417;-61
2023/02/01 09:13:01;;;;;;;24.85;6.25;;;5.90;99.90;;;;;;5080498;28;20454;-59
2023/02/01 09:15:28;;;;;;;21.52;6.38;;;5.90;99.10;;;;;;5081278;28;20410;-57
2023/02/01 09:17:55;;;;;;;22.48;5.53;;;5.90;99.90;;;;;;5082841;28;20896;-59
2023/02/01 09:20:23;;;;;;;19.15;5.85;;;5.90;99.90;;;;;;5081840;28;20417;-60
2023/02/01 09:22:51;;;;;;;19.45;5.38;;;5.90;99.90;;;;;;5082810;28;20410;-59
2023/02/01 09:25:18;;;;;;;18.33;5.75;;;6.00;99.90;;;;;;5076615;28;20882;-59
2023/02/01 09:27:44;;;;;;;21.13;6.10;;;6.00;99.90;;;;;;5082269;28;20417;-60
2023/02/01 09:30:12;;;;;;;21.67;6.40;;;6.10;97.30;;;;;;5080357;28;20411;-60
2023/02/01 09:32:39;;;;;;;23.40;5.70;;;6.10;93.60;;;;;;5080798;28;20418;-61
2023/02/01 09:35:06;;;;;;;21.00;5.57;;;6.20;91.20;;;;;;5079114;28;20414;-61
2023/02/01 09:37:34;;;;;;;21.30;5.75;;;6.10;91.80;;;;;;5080023;28;20889;-59
2023/02/01 09:40:01;;;;;;;20.88;6.28;;;6.10;89.10;;;;;;5080482;28;20933;-60
2023/02/01 09:42:45;;;;;;;20.33;6.38;;;6.10;91.60;;;;;;5082439;28;20410;-64
2023/02/01 09:45:20;;;;;;;19.60;5.90;;;6.00;97.90;;;;;;5081068;28;20467;-61
2023/02/01 09:47:51;;;;;;;19.00;5.70;;;6.10;97.70;;;;;;5081996;28;20463;-61
2023/02/01 09:50:22;;;;;;;21.23;5.90;;;6.10;91.80;;;;;;5075835;28;20408;-61
2023/02/01 09:52:56;;;;;;;17.23;5.55;;;6.10;86.60;;;;;;5080479;28;20793;-59
2023/02/01 09:55:31;;;;;;;17.70;6.10;;;6.10;91.80;;;;;;5073950;28;20414;-61
2023/02/01 09:58:02;;;;;;;22.48;6.53;;;6.10;83.30;;;;;;5078004;28;20413;-60
2023/02/01 10:00:33;;;;;;;22.63;7.18;;;6.20;90.90;;;;;;5078409;28;20412;-59
2023/02/01 10:03:00;;;;;;;19.40;6.90;;;6.10;91.00;;;;;;5081481;28;20449;-61
2023/02/01 10:05:54;;;;;;;20.58;6.35;;;6.10;88.40;;;;;;5081684;28;20408;-57
2023/02/01 10:08:32;;;;;;;20.60;5.63;;;6.10;78.80;;;;;;5072571;28;20414;-54
2023/02/01 10:11:13;;;;;;;19.33;6.15;;;6.30;81.20;;;;;;5080020;28;20470;-52
2023/02/01 10:13:54;;;;;;;19.27;5.93;;;6.30;75.40;;;;;;5080178;28;20430;-55
2023/02/01 10:16:31;;;;;;;17.63;5.57;;;6.30;72.20;;;;;;5080124;28;20409;-52
2023/02/01 10:19:24;;;;;;;14.18;5.32;;;6.30;78.80;;;;;;5078123;28;20463;-51
2023/02/01 10:21:59;;;;;;;15.95;5.25;;;6.30;66.60;;;;;;5079985;28;20823;-59
2023/02/01 10:24:38;;;;;;;19.10;5.65;;;6.30;58.60;;;;;;5080027;28;20891;-59
2023/02/01 10:27:14;;;;;;;22.08;5.70;;;6.20;82.20;;;;;;5080439;28;20903;-58
2023/02/01 10:29:43;;;;;;;20.67;5.90;;;6.30;78.20;;;;;;5078824;28;20407;-60
2023/02/01 10:32:14;;;;;;;19.92;5.70;;;6.40;85.40;;;;;;5077962;28;20428;-63
2023/02/01 10:34:43;;;;;;;15.23;5.57;;;6.40;61.40;;;;;;5073482;28;20428;-63
2023/02/01 10:37:19;;;;;;;20.50;6.43;;;6.40;56.40;;;;;;5078318;28;20418;-60
2023/02/01 10:39:49;;;;;;;19.10;5.88;;;6.30;70.30;;;;;;5077527;28;20414;-60
2023/02/01 10:42:18;;;;;;;23.50;6.40;;;6.30;75.10;;;;;;5080260;28;20421;-61
2023/02/01 10:44:47;;;;;;;20.52;6.25;;;6.20;70.40;;;;;;5078713;28;21458;-52
2023/02/01 10:47:15;;;;;;;17.60;5.85;;;6.20;79.20;;;;;;5068633;28;20826;-58
2023/02/01 10:49:51;;;;;;;26.48;5.65;;;6.30;72.40;;;;;;5077752;28;20912;-55
2023/02/01 10:52:22;;;;;;;21.60;6.70;;;6.20;70.10;;;;;;5073658;28;20518;-54
2023/02/01 10:54:50;;;;;;;18.45;5.53;;;6.20;67.10;;;;;;5079649;28;20450;-54
2023/02/01 10:57:23;;;;;;;21.52;6.38;;;6.30;54.40;;;;;;5073640;28;20415;-56
2023/02/01 10:59:50;;;;;;;21.65;5.15;;;6.30;67.10;;;;;;5079495;28;20501;-62
2023/02/01 11:02:26;;;;;;;20.75;5.30;;;6.30;65.00;;;;;;5077643;28;20412;-56
2023/02/01 11:05:00;;;;;;;15.88;5.45;;;6.30;53.60;;;;;;5074238;28;20443;-58
2023/02/01 11:07:29;;;;;;;16.98;5.45;;;6.40;53.10;;;;;;5077068;28;20422;-58
2023/02/01 11:09:57;;;;;;;20.15;5.72;;;6.40;62.50;;;;;;5079842;28;20420;-59
2023/02/01 11:12:32;;;;;;;19.77;5.67;;;6.40;69.50;;;;;;5077734;28;20940;-56
2023/02/01 11:15:03;;;;;;;15.80;4.63;;;6.40;64.80;;;;;;5074238;28;20418;-60
2023/02/01 11:17:36;;;;;;;18.63;5.10;;;6.40;67.30;;;;;;5079028;28;21196;-60
2023/02/01 11:20:13;;;;;;;18.23;5.35;;;6.40;58.40;;;;;;5075816;28;20500;-60
2023/02/01 11:22:46;;;;;;;19.52;5.75;;;6.40;61.00;;;;;;5074118;28;21148;-56
2023/02/01 11:25:18;;;;;;;20.60;5.38;;;6.40;55.70;;;;;;5077111;28;20495;-64
2023/02/01 11:27:45;;;;;;;14.80;5.40;;;6.40;67.30;;;;;;5078128;28;20870;-64
2023/02/01 11:30:17;;;;;;;17.98;5.72;;;6.70;64.60;;;;;;5077166;28;20907;-65
2023/02/01 11:32:46;;;;;;;18.90;5.20;;;6.70;39.60;;;;;;5078253;28;20470;-66
2023/02/01 11:35:17;;;;;;;21.85;5.68;;;6.70;29.20;;;;;;5075442;28;20419;-64
2023/02/01 11:37:45;;;;;;;19.07;5.57;;;6.70;26.10;;;;;;5078026;28;20426;-65
2023/02/01 11:40:28;;;;;;;21.40;5.90;;;6.70;29.70;;;;;;5079588;28;21188;-66
2023/02/01 11:42:57;;;;;;;17.10;5.47;;;6.70;36.50;;;;;;5079743;28;20410;-66
2023/02/01 11:45:27;;;;;;;18.17;5.68;;;6.70;33.30;;;;;;5079355;28;20413;-65
2023/02/01 11:47:55;;;;;;;16.80;5.18;;;6.80;32.90;;;;;;5078714;28;20412;-66
2023/02/01 11:50:30;;;;;;;17.83;5.28;;;6.80;18.90;;;;;;5076986;28;20419;-67
2023/02/01 11:53:25;;;;;;;18.02;4.95;;;6.70;18.80;;;;;;5076944;28;20793;-69
2023/02/01 11:56:01;;;;;;;14.37;4.73;;;6.80;21.50;;;;;;5075511;28;20454;-60
2023/02/01 11:58:51;;;;;;;16.58;5.38;;;6.80;12.80;;;;;;5075062;28;20419;-59
2023/02/01 12:01:43;;;;;;;15.10;5.07;;;6.70;18.90;;;;;;5076705;28;20420;-57
2023/02/01 12:04:55;;;;;;;18.45;5.45;;;6.70;45.30;;;;;;5079329;28;20405;-57
2023/02/01 12:07:27;;;;;;;18.10;5.72;;;6.50;92.50;;;;;;4978602;28;20444;-55
2023/02/01 12:10:07;;;;;;;18.77;6.60;;;6.40;99.90;;;;;;5062752;28;20479;-58
2023/02/01 12:12:45;;;;;;;21.70;7.25;;;6.30;99.90;;;;;;5079343;28;20412;-59
2023/02/01 12:15:29;;;;;;;19.08;6.20;;;6.20;99.90;;;;;;5078165;28;20792;-59
2023/02/01 12:18:31;;;;;;;25.17;6.78;;;6.20;99.90;;;;;;5076792;28;20897;-56
2023/02/01 12:21:07;;;;;;;19.75;6.82;;;6.10;99.90;;;;;;5064708;28;20450;-59
2023/02/01 12:23:47;;;;;;;18.08;6.35;;;6.20;99.90;;;;;;5082841;28;20406;-59
2023/02/01 12:26:47;;;;;;;19.08;6.07;;;6.10;99.90;;;;;;5079827;28;20433;-59
2023/02/01 12:29:32;;;;;;;19.50;6.50;;;6.00;99.90;;;;;;5062921;28;20473;-59
2023/02/01 12:32:10;;;;;;;15.82;5.55;;;6.00;99.90;;;;;;5077892;28;20763;-60
2023/02/01 12:35:03;;;;;;;19.27;6.20;;;6.00;99.90;;;;;;5084255;28;20429;-60
2023/02/01 12:37:54;;;;;;;20.00;6.10;;;6.00;99.90;;;;;;5079073;28;20894;-59
2023/02/01 12:40:34;;;;;;;18.85;6.20;;;6.10;99.90;;;;;;5082401;28;20406;-56
2023/02/01 12:43:05;;;;;;;18.85;5.47;;;6.10;99.90;;;;;;5080727;28;20409;-58
2023/02/01 12:45:39;;;;;;;16.53;5.13;;;6.10;99.90;;;;;;5080703;28;20548;-59
2023/02/01 12:48:23;;;;;;;18.85;5.55;;;6.20;99.90;;;;;;5079605;28;20837;-63
2023/02/01 12:50:54;;;;;;;16.92;5.00;;;6.30;99.90;;;;;;5082171;28;20428;-59
2023/02/01 12:53:26;;;;;;;19.30;5.30;;;6.30;99.90;;;;;;5078896;28;20428;-58
2023/02/01 12:55:55;;;;;;;20.42;5.60;;;6.30;99.90;;;;;;5080254;28;20493;-59
2023/02/01 12:58:27;;;;;;;17.13;5.30;;;6.40;99.90;;;;;;5083141;28;20426;-58
2023/02/01 13:01:00;;;;;;;14.07;4.53;;;6.40;99.90;;;;;;5083342;28;20414;-58
2023/02/01 13:03:37;;;;;;;20.42;5.22;;;6.40;99.90;;;;;;5082566;28;20915;-57
2023/02/01 13:06:10;;;;;;;16.77;4.80;;;6.40;99.90;;;;;;5078726;28;20878;-58
2023/02/01 13:08:44;;;;;;;19.05;4.70;;;6.50;99.90;;;;;;5080545;28;20408;-60
2023/02/01 13:11:15;;;;;;;17.88;4.80;;;6.50;99.90;;;;;;5081490;28;20411;-61
2023/02/01 13:13:49;;;;;;;19.83;4.53;;;6.40;99.90;;;;;;5076971;28;20435;-60
2023/02/01 13:16:24;;;;;;;20.60;4.68;;;6.50;99.90;;;;;;5080136;28;20890;-58
2023/02/01 13:18:53;;;;;;;17.23;4.10;;;6.40;99.90;;;;;;5079740;28;20471;-59
2023/02/01 13:21:25;;;;;;;16.58;4.25;;;6.50;99.90;;;;;;5080501;28;20416;-59
2023/02/01 13:23:53;;;;;;;21.45;4.57;;;6.40;99.90;;;;;;5080212;28;20415;-59
2023/02/01 13:26:19;;;;;;;20.45;4.80;;;6.40;99.90;;;;;;5082753;28;20414;-56